• Join FlightAware (Why Join?)
  • Login
  • US Flag 
12:55PM EDT


 

Airport Tracker/Info


-or-


 

Live Flight TrackerFlight Track Log ✈ CSN6552 ✈ 11-May-2013 ✈ ZSYT / YNT - CYNJ / YLY

Flight Track Log - Related Links

Times and Time Zones

All times are in EDT time to prevent confusion due to time zone crossing. See the CSN6552 flight status page for this flight to view local times or setup timezone preferences in your user account.

Time Position Orientation Groundspeed Altitude Reporting Facility
EDT Latitude Longitude Course Direction KTS MPH feet Rate Location/Type
10:45AM 38.2831 122.2275 37° Northeast  Level Estimated
10:46AM 39.1582 123.1043 38° Northeast  Level Estimated
10:47AM 40.0265 124.0032 38° Northeast  Level Estimated
10:48AM 40.8877 124.9251 39° Northeast  Level Estimated
10:49AM 41.7414 125.8712 39° Northeast  Level Estimated
10:50AM 42.5871 126.8427 40° Northeast  Level Estimated
10:51AM 43.4244 127.8407 41° Northeast  Level Estimated
10:52AM 44.2528 128.8666 41° Northeast  Level Estimated
10:53AM 45.0717 129.9217 42° Northeast  Level Estimated
10:54AM 45.8806 131.0072 43° Northeast  Level Estimated
10:55AM 46.6789 132.1247 44° Northeast  Level Estimated
10:56AM 47.4661 133.2753 44° Northeast  Level Estimated
10:57AM 48.2413 134.4608 45° Northeast  Level Estimated
10:58AM 49.0041 135.6823 46° Northeast  Level Estimated
10:59AM 49.7535 136.9416 47° Northeast  Level Estimated
11:00AM 50.4888 138.2400 48° Northeast  Level Estimated
11:01AM 51.2093 139.5790 49° Northeast  Level Estimated
11:02AM 51.9140 140.9601 50° Northeast  Level Estimated
11:03AM 52.6020 142.3848 51° Northeast  Level Estimated
11:04AM 53.2724 143.8543 52° Northeast  Level Estimated
11:05AM 53.9241 145.3699 53° Northeast  Level Estimated
11:06AM 54.5562 146.9329 55° Northeast  Level Estimated
11:07AM 55.1675 148.5443 56° Northeast  Level Estimated
11:08AM 55.7569 150.2050 57° Northeast  Level Estimated
11:09AM 56.3232 151.9155 59° Northeast  Level Estimated
11:10AM 56.8653 153.6765 60° Northeast  Level Estimated
11:11AM 57.3819 155.4881 62° Northeast  Level Estimated
11:12AM 57.8717 157.3500 63° Northeast  Level Estimated
11:13AM 58.3335 159.2618 65° Northeast  Level Estimated
11:14AM 58.7661 161.2227 66° East  Level Estimated
11:15AM 59.1682 163.2312 68° East  Level Estimated
11:16AM 59.5386 165.2856 70° East  Level Estimated
11:17AM 59.8762 167.3835 71° East  Level Estimated
11:18AM 60.1797 169.5224 73° East  Level Estimated
11:19AM 60.4481 171.6988 75° East  Level Estimated
11:20AM 60.6805 173.9090 77° East  Level Estimated
11:21AM 60.8760 176.1488 79° East  Level Estimated
11:22AM 61.0339 178.4135 81° East  Level Estimated
11:23AM 61.1535 -179.3019 83° East  Level Estimated
11:24AM 61.2343 -177.0028 85° East  Level Estimated
11:25AM 61.2760 -174.6946 87° East  Level Estimated
11:26AM 61.2784 -172.3833 89° East  Level Estimated
11:27AM 61.2416 -170.0744 91° East  Level Estimated
11:28AM 61.1657 -167.7738 93° East  Level Estimated
11:29AM 61.0509 -165.4871 95° East  Level Estimated
11:30AM 60.8978 -163.2196 97° East  Level Estimated
11:31AM 60.7070 -160.9765 99° East  Level Estimated
11:32AM 60.4791 -158.7623 101° East  Level Estimated
11:33AM 60.2151 -156.5815 103° East  Level Estimated
11:34AM 59.9160 -154.4378 105° East  Level Estimated
11:35AM 59.5826 -152.3345 107° East  Level Estimated
11:36AM 59.2163 -150.2745 108° East  Level Estimated
11:37AM 58.8180 -148.2602 110° East  Level Estimated
11:38AM 58.3892 -146.2933 112° Southeast  Level Estimated
11:39AM 57.9309 -144.3753 114° Southeast  Level Estimated
11:40AM 57.4445 -142.5071 115° Southeast  Level Estimated
11:41AM 56.9312 -140.6893 117° Southeast  Level Estimated
11:42AM 56.3923 -138.9220 118° Southeast  Level Estimated
11:43AM 55.8289 -137.2051 120° Southeast  Level Estimated
11:44AM 55.2423 -135.5383 121° Southeast  Level Estimated
11:45AM 54.6337 -133.9208 123° Southeast  Level Estimated
11:46AM 54.0042 -132.3518 124° Southeast  Level Estimated
11:47AM 53.3548 -130.8303 125° Southeast  Level Estimated
11:48AM 52.6867 -129.3551 126° Southeast  Level Estimated
11:49AM 52.0009 -127.9249 128° Southeast  Level Estimated
11:50AM 51.2982 -126.5384 129° Southeast  Level Estimated
11:51AM 50.5797 -125.1942 130° Southeast  Level Estimated
11:52AM 49.8461 -123.8908 131° Southeast  Level Estimated
11:53AM 49.1010 -122.6310 132° Southeast  Level Estimated
11:54AM 49.1010 -122.6310 North  Level Estimated
11:55AM 49.1010 -122.6310 North  Level Estimated
11:56AM 49.1010 -122.6310 North  Level Estimated
11:57AM 49.1010 -122.6310 North  Level Estimated
11:58AM 49.1010 -122.6310 North  Level Estimated
11:59AM 49.1010 -122.6310 North  Level Estimated
12:00PM 49.1010 -122.6310 North  Level Estimated
12:01PM 49.1010 -122.6310 North  Level Estimated
12:02PM 49.1010 -122.6310 North  Level Estimated
12:03PM 49.1010 -122.6310 North  Level Estimated
12:04PM 49.1010 -122.6310 North  Level Estimated
12:05PM 49.1010 -122.6310 North  Level Estimated
12:06PM 49.1010 -122.6310 North  Level Estimated
12:07PM 49.1010 -122.6310 North  Level Estimated